Schedule Details


Flight Number: CTN624
Departure: Klisa (LDOS) at 23:15
Arrival: Cilipi (LDDU) at 00:15
Route: ADULA P10 NERRA

Weather Information
LDOS 180000Z 36002KT CAVOK 16/14 Q1017
LDDU 180000Z VRB01KT CAVOK 19/17 Q1018
Schedule Frequency

Route Map